sensor_id;sensor_type;location;lat;lon;timestamp;pressure;altitude;pressure_sealevel;temperature;humidity
49813;BME280;35706;52.100;5.056;2023-06-10T00:00:36;101407.88;;;25.06;42.67
49813;BME280;35706;52.100;5.056;2023-06-10T00:01:36;101406.28;;;24.98;42.97
49813;BME280;35706;52.100;5.056;2023-06-10T00:02:36;101406.13;;;24.93;42.90
49813;BME280;35706;52.100;5.056;2023-06-10T00:03:37;101401.19;;;24.90;42.70
49813;BME280;35706;52.100;5.056;2023-06-10T00:04:37;101400.91;;;24.98;42.78
49813;BME280;35706;52.100;5.056;2023-06-10T00:05:38;101405.69;;;24.96;42.47
49813;BME280;35706;52.100;5.056;2023-06-10T00:06:38;101412.50;;;24.98;42.46
49813;BME280;35706;52.100;5.056;2023-06-10T00:07:39;101409.00;;;24.98;42.44
49813;BME280;35706;52.100;5.056;2023-06-10T00:08:41;101406.72;;;24.95;42.19
49813;BME280;35706;52.100;5.056;2023-06-10T00:09:42;101408.31;;;25.03;42.28
49813;BME280;35706;52.100;5.056;2023-06-10T00:10:42;101406.84;;;25.07;42.13
49813;BME280;35706;52.100;5.056;2023-06-10T00:11:42;101404.44;;;24.98;42.20
49813;BME280;35706;52.100;5.056;2023-06-10T00:12:43;101413.53;;;24.97;42.36
49813;BME280;35706;52.100;5.056;2023-06-10T00:13:43;101415.44;;;24.90;42.99
49813;BME280;35706;52.100;5.056;2023-06-10T00:14:44;101415.91;;;24.87;42.44
49813;BME280;35706;52.100;5.056;2023-06-10T00:15:44;101413.41;;;24.86;42.40
49813;BME280;35706;52.100;5.056;2023-06-10T00:16:45;101417.53;;;24.88;42.33
49813;BME280;35706;52.100;5.056;2023-06-10T00:17:45;101418.59;;;24.81;42.56
49813;BME280;35706;52.100;5.056;2023-06-10T00:18:46;101415.91;;;24.81;42.37
49813;BME280;35706;52.100;5.056;2023-06-10T00:19:47;101420.25;;;24.82;42.38
49813;BME280;35706;52.100;5.056;2023-06-10T00:20:47;101416.09;;;24.86;42.21
49813;BME280;35706;52.100;5.056;2023-06-10T00:21:48;101421.28;;;24.87;42.32
49813;BME280;35706;52.100;5.056;2023-06-10T00:22:51;101416.66;;;24.94;42.72
49813;BME280;35706;52.100;5.056;2023-06-10T00:23:52;101419.41;;;24.88;42.31
49813;BME280;35706;52.100;5.056;2023-06-10T00:24:52;101411.31;;;24.88;42.35
49813;BME280;35706;52.100;5.056;2023-06-10T00:25:52;101419.59;;;24.86;42.32
49813;BME280;35706;52.100;5.056;2023-06-10T00:26:53;101411.13;;;24.83;42.21
49813;BME280;35706;52.100;5.056;2023-06-10T00:27:53;101421.72;;;24.77;42.18
49813;BME280;35706;52.100;5.056;2023-06-10T00:28:53;101418.19;;;24.84;42.17
49813;BME280;35706;52.100;5.056;2023-06-10T00:29:54;101423.00;;;24.75;42.50
49813;BME280;35706;52.100;5.056;2023-06-10T00:30:54;101414.75;;;24.70;42.24
49813;BME280;35706;52.100;5.056;2023-06-10T00:31:54;101421.81;;;24.64;42.81
49813;BME280;35706;52.100;5.056;2023-06-10T00:32:57;101419.94;;;24.65;42.62
49813;BME280;35706;52.100;5.056;2023-06-10T00:33:57;101425.97;;;24.60;42.28
49813;BME280;35706;52.100;5.056;2023-06-10T00:34:59;101420.84;;;24.52;42.70
49813;BME280;35706;52.100;5.056;2023-06-10T00:35:59;101421.00;;;24.57;42.88
49813;BME280;35706;52.100;5.056;2023-06-10T00:36:59;101419.50;;;24.68;42.77
49813;BME280;35706;52.100;5.056;2023-06-10T00:38:00;101422.63;;;24.65;42.56
49813;BME280;35706;52.100;5.056;2023-06-10T00:39:00;101419.31;;;24.69;42.45
49813;BME280;35706;52.100;5.056;2023-06-10T00:40:01;101415.75;;;24.75;41.90
49813;BME280;35706;52.100;5.056;2023-06-10T00:41:01;101425.13;;;24.66;42.65
49813;BME280;35706;52.100;5.056;2023-06-10T00:42:02;101420.56;;;24.67;42.44
49813;BME280;35706;52.100;5.056;2023-06-10T00:43:07;101419.75;;;24.66;42.53
49813;BME280;35706;52.100;5.056;2023-06-10T00:44:07;101425.28;;;24.71;42.37
49813;BME280;35706;52.100;5.056;2023-06-10T00:45:08;101422.63;;;24.65;42.39
49813;BME280;35706;52.100;5.056;2023-06-10T00:46:09;101422.63;;;24.65;42.13
49813;BME280;35706;52.100;5.056;2023-06-10T00:47:11;101422.94;;;24.50;42.88
49813;BME280;35706;52.100;5.056;2023-06-10T00:48:12;101425.16;;;24.53;42.70
49813;BME280;35706;52.100;5.056;2023-06-10T00:49:13;101422.72;;;24.51;42.36
49813;BME280;35706;52.100;5.056;2023-06-10T00:50:13;101420.38;;;24.62;42.00
49813;BME280;35706;52.100;5.056;2023-06-10T00:51:15;101418.13;;;24.58;42.41
49813;BME280;35706;52.100;5.056;2023-06-10T00:52:17;101414.78;;;24.63;42.34
49813;BME280;35706;52.100;5.056;2023-06-10T00:53:19;101420.25;;;24.43;42.75
49813;BME280;35706;52.100;5.056;2023-06-10T00:54:21;101419.19;;;24.44;42.70
49813;BME280;35706;52.100;5.056;2023-06-10T00:55:21;101420.41;;;24.48;42.75
49813;BME280;35706;52.100;5.056;2023-06-10T00:56:23;101417.56;;;24.43;42.90
49813;BME280;35706;52.100;5.056;2023-06-10T00:57:23;101420.66;;;24.40;42.46
49813;BME280;35706;52.100;5.056;2023-06-10T00:58:24;101423.53;;;24.45;42.41
49813;BME280;35706;52.100;5.056;2023-06-10T00:59:26;101419.44;;;24.36;42.46
49813;BME280;35706;52.100;5.056;2023-06-10T01:00:26;101423.94;;;24.49;42.52
49813;BME280;35706;52.100;5.056;2023-06-10T01:01:26;101417.31;;;24.45;42.52
49813;BME280;35706;52.100;5.056;2023-06-10T01:02:27;101416.34;;;24.39;42.42
49813;BME280;35706;52.100;5.056;2023-06-10T01:03:27;101418.03;;;24.27;42.61
49813;BME280;35706;52.100;5.056;2023-06-10T01:04:28;101419.06;;;24.32;42.44
49813;BME280;35706;52.100;5.056;2023-06-10T01:05:29;101418.00;;;24.33;42.74
49813;BME280;35706;52.100;5.056;2023-06-10T01:08:01;101421.09;;;24.37;42.78
49813;BME280;35706;52.100;5.056;2023-06-10T01:10:29;101424.19;;;24.34;43.04
49813;BME280;35706;52.100;5.056;2023-06-10T01:11:48;101426.91;;;24.27;43.18
49813;BME280;35706;52.100;5.056;2023-06-10T01:12:56;101425.81;;;24.42;43.14
49813;BME280;35706;52.100;5.056;2023-06-10T01:14:00;101423.22;;;24.22;42.71
49813;BME280;35706;52.100;5.056;2023-06-10T01:15:01;101423.88;;;24.10;43.00
49813;BME280;35706;52.100;5.056;2023-06-10T01:16:06;101428.88;;;24.07;42.88
49813;BME280;35706;52.100;5.056;2023-06-10T01:17:07;101430.47;;;24.14;42.37
49813;BME280;35706;52.100;5.056;2023-06-10T01:18:10;101431.50;;;24.20;42.51
49813;BME280;35706;52.100;5.056;2023-06-10T01:19:15;101422.63;;;24.20;41.84
49813;BME280;35706;52.100;5.056;2023-06-10T01:20:17;101422.81;;;24.18;41.86
49813;BME280;35706;52.100;5.056;2023-06-10T01:21:22;101420.97;;;24.18;41.79
49813;BME280;35706;52.100;5.056;2023-06-10T01:22:27;101435.22;;;24.12;42.39
49813;BME280;35706;52.100;5.056;2023-06-10T01:23:36;101423.84;;;24.17;41.67
49813;BME280;35706;52.100;5.056;2023-06-10T01:24:37;101428.41;;;24.16;41.29
49813;BME280;35706;52.100;5.056;2023-06-10T01:25:47;101436.47;;;24.16;41.42
49813;BME280;35706;52.100;5.056;2023-06-10T01:26:51;101432.75;;;24.17;41.41
49813;BME280;35706;52.100;5.056;2023-06-10T01:27:54;101430.22;;;24.29;41.10
49813;BME280;35706;52.100;5.056;2023-06-10T01:29:27;101428.97;;;24.32;40.91
49813;BME280;35706;52.100;5.056;2023-06-10T01:30:42;101424.44;;;24.32;41.02
49813;BME280;35706;52.100;5.056;2023-06-10T01:31:55;101423.81;;;24.30;40.99
49813;BME280;35706;52.100;5.056;2023-06-10T01:33:02;101426.13;;;24.20;41.22
49813;BME280;35706;52.100;5.056;2023-06-10T01:34:08;101424.44;;;24.32;40.75
49813;BME280;35706;52.100;5.056;2023-06-10T01:35:09;101419.88;;;24.33;40.45
49813;BME280;35706;52.100;5.056;2023-06-10T01:36:09;101422.38;;;24.21;40.69
49813;BME280;35706;52.100;5.056;2023-06-10T01:37:13;101424.25;;;24.21;40.67
49813;BME280;35706;52.100;5.056;2023-06-10T01:38:17;101432.97;;;24.16;40.81
49813;BME280;35706;52.100;5.056;2023-06-10T01:39:22;101431.28;;;24.15;40.69
49813;BME280;35706;52.100;5.056;2023-06-10T01:40:25;101418.72;;;24.15;40.84
49813;BME280;35706;52.100;5.056;2023-06-10T01:41:26;101426.19;;;24.07;40.81
49813;BME280;35706;52.100;5.056;2023-06-10T01:42:27;101428.66;;;24.02;40.95
49813;BME280;35706;52.100;5.056;2023-06-10T01:43:28;101423.09;;;24.03;40.88
49813;BME280;35706;52.100;5.056;2023-06-10T01:44:28;101427.16;;;24.12;41.29
49813;BME280;35706;52.100;5.056;2023-06-10T01:45:28;101425.75;;;24.10;40.98
49813;BME280;35706;52.100;5.056;2023-06-10T01:46:29;101423.28;;;24.02;40.98
49813;BME280;35706;52.100;5.056;2023-06-10T01:47:29;101431.38;;;23.88;41.44
49813;BME280;35706;52.100;5.056;2023-06-10T01:48:30;101432.81;;;23.91;40.96
49813;BME280;35706;52.100;5.056;2023-06-10T01:49:30;101432.63;;;23.92;41.29
49813;BME280;35706;52.100;5.056;2023-06-10T01:50:30;101428.69;;;23.88;40.65
49813;BME280;35706;52.100;5.056;2023-06-10T01:51:31;101434.69;;;23.84;40.72
49813;BME280;35706;52.100;5.056;2023-06-10T01:52:31;101430.34;;;23.89;40.74
49813;BME280;35706;52.100;5.056;2023-06-10T01:53:32;101429.53;;;23.82;40.69
49813;BME280;35706;52.100;5.056;2023-06-10T01:54:32;101433.22;;;23.74;40.88
49813;BME280;35706;52.100;5.056;2023-06-10T01:55:34;101433.25;;;23.81;40.69
49813;BME280;35706;52.100;5.056;2023-06-10T01:56:34;101434.06;;;23.75;40.78
49813;BME280;35706;52.100;5.056;2023-06-10T01:57:35;101429.75;;;23.81;40.83
49813;BME280;35706;52.100;5.056;2023-06-10T01:58:35;101428.50;;;23.83;40.73
49813;BME280;35706;52.100;5.056;2023-06-10T01:59:36;101434.72;;;23.77;40.94
49813;BME280;35706;52.100;5.056;2023-06-10T02:00:37;101435.53;;;23.71;41.07
49813;BME280;35706;52.100;5.056;2023-06-10T02:01:38;101436.75;;;23.75;40.83
49813;BME280;35706;52.100;5.056;2023-06-10T02:02:38;101429.94;;;23.79;40.99
49813;BME280;35706;52.100;5.056;2023-06-10T02:03:38;101432.41;;;23.74;40.93
49813;BME280;35706;52.100;5.056;2023-06-10T02:04:38;101430.38;;;23.63;40.94
49813;BME280;35706;52.100;5.056;2023-06-10T02:05:39;101434.69;;;23.70;41.22
49813;BME280;35706;52.100;5.056;2023-06-10T02:06:40;101436.34;;;23.65;41.57
49813;BME280;35706;52.100;5.056;2023-06-10T02:07:40;101432.00;;;23.70;40.92
49813;BME280;35706;52.100;5.056;2023-06-10T02:08:40;101432.84;;;23.71;41.27
49813;BME280;35706;52.100;5.056;2023-06-10T02:09:41;101427.88;;;23.68;41.53
49813;BME280;35706;52.100;5.056;2023-06-10T02:10:41;101424.19;;;23.62;41.39
49813;BME280;35706;52.100;5.056;2023-06-10T02:11:41;101423.34;;;23.62;41.32
49813;BME280;35706;52.100;5.056;2023-06-10T02:12:41;101431.38;;;23.68;41.26
49813;BME280;35706;52.100;5.056;2023-06-10T02:13:42;101430.97;;;23.71;41.06
49813;BME280;35706;52.100;5.056;2023-06-10T02:14:43;101433.47;;;23.73;40.83
49813;BME280;35706;52.100;5.056;2023-06-10T02:15:43;101434.06;;;23.75;40.87
49813;BME280;35706;52.100;5.056;2023-06-10T02:16:43;101435.28;;;23.72;41.07
49813;BME280;35706;52.100;5.056;2023-06-10T02:17:46;101434.09;;;23.82;40.98
49813;BME280;35706;52.100;5.056;2023-06-10T02:18:49;101430.16;;;23.71;40.63
49813;BME280;35706;52.100;5.056;2023-06-10T02:19:49;101433.22;;;23.74;40.81
49813;BME280;35706;52.100;5.056;2023-06-10T02:20:52;101436.34;;;23.71;40.84
49813;BME280;35706;52.100;5.056;2023-06-10T02:21:52;101432.41;;;23.74;40.92
49813;BME280;35706;52.100;5.056;2023-06-10T02:22:53;101438.81;;;23.73;41.10
49813;BME280;35706;52.100;5.056;2023-06-10T02:23:53;101431.19;;;23.76;40.95
49813;BME280;35706;52.100;5.056;2023-06-10T02:24:53;101439.66;;;23.60;41.17
49813;BME280;35706;52.100;5.056;2023-06-10T02:25:53;101441.50;;;23.60;40.85
49813;BME280;35706;52.100;5.056;2023-06-10T02:26:54;101441.31;;;23.54;41.13
49813;BME280;35706;52.100;5.056;2023-06-10T02:27:55;101447.69;;;23.53;41.16
49813;BME280;35706;52.100;5.056;2023-06-10T02:28:56;101438.00;;;23.59;41.24
49813;BME280;35706;52.100;5.056;2023-06-10T02:29:59;101438.84;;;23.53;41.77
49813;BME280;35706;52.100;5.056;2023-06-10T02:30:59;101439.44;;;23.68;41.66
49813;BME280;35706;52.100;5.056;2023-06-10T02:32:02;101439.88;;;23.58;41.23
49813;BME280;35706;52.100;5.056;2023-06-10T02:33:03;101451.63;;;23.51;41.39
49813;BME280;35706;52.100;5.056;2023-06-10T02:34:03;101437.59;;;23.55;41.62
49813;BME280;35706;52.100;5.056;2023-06-10T02:35:04;101433.66;;;23.65;41.11
49813;BME280;35706;52.100;5.056;2023-06-10T02:36:06;101435.94;;;23.54;41.61
49813;BME280;35706;52.100;5.056;2023-06-10T02:37:06;101438.19;;;23.57;41.24
49813;BME280;35706;52.100;5.056;2023-06-10T02:38:06;101436.97;;;23.60;41.35
49813;BME280;35706;52.100;5.056;2023-06-10T02:39:07;101439.06;;;23.58;41.56
49813;BME280;35706;52.100;5.056;2023-06-10T02:40:08;101442.13;;;23.48;41.59
49813;BME280;35706;52.100;5.056;2023-06-10T02:41:08;101445.84;;;23.47;41.68
49813;BME280;35706;52.100;5.056;2023-06-10T02:42:09;101444.22;;;23.46;41.93
49813;BME280;35706;52.100;5.056;2023-06-10T02:43:10;101438.22;;;23.51;41.42
49813;BME280;35706;52.100;5.056;2023-06-10T02:44:10;101440.47;;;23.47;41.53
49813;BME280;35706;52.100;5.056;2023-06-10T02:45:11;101442.97;;;23.42;41.48
49813;BME280;35706;52.100;5.056;2023-06-10T02:46:11;101447.28;;;23.30;42.38
49813;BME280;35706;52.100;5.056;2023-06-10T02:47:11;101439.47;;;23.35;41.81
49813;BME280;35706;52.100;5.056;2023-06-10T02:48:12;101441.72;;;23.38;41.92
49813;BME280;35706;52.100;5.056;2023-06-10T02:49:12;101441.53;;;23.33;42.08
49813;BME280;35706;52.100;5.056;2023-06-10T02:50:12;101446.66;;;23.34;42.28
49813;BME280;35706;52.100;5.056;2023-06-10T02:51:16;101438.41;;;23.43;42.07
49813;BME280;35706;52.100;5.056;2023-06-10T02:52:16;101445.25;;;23.45;41.99
49813;BME280;35706;52.100;5.056;2023-06-10T02:53:16;101436.16;;;23.40;41.90
49813;BME280;35706;52.100;5.056;2023-06-10T02:54:17;101442.13;;;23.22;42.37
49813;BME280;35706;52.100;5.056;2023-06-10T02:55:17;101446.06;;;23.19;42.53
49813;BME280;35706;52.100;5.056;2023-06-10T02:56:18;101436.75;;;23.22;42.49
49813;BME280;35706;52.100;5.056;2023-06-10T02:57:18;101442.56;;;23.19;42.75
49813;BME280;35706;52.100;5.056;2023-06-10T02:58:19;101441.50;;;23.13;42.66
49813;BME280;35706;52.100;5.056;2023-06-10T02:59:21;101444.41;;;23.18;42.73
49813;BME280;35706;52.100;5.056;2023-06-10T03:00:22;101445.00;;;23.13;42.85
49813;BME280;35706;52.100;5.056;2023-06-10T03:01:22;101441.72;;;23.18;42.96
49813;BME280;35706;52.100;5.056;2023-06-10T03:02:22;101443.59;;;23.24;43.04
49813;BME280;35706;52.100;5.056;2023-06-10T03:03:28;101434.50;;;23.19;42.98
49813;BME280;35706;52.100;5.056;2023-06-10T03:04:30;101435.28;;;22.99;43.09
49813;BME280;35706;52.100;5.056;2023-06-10T03:05:30;101436.34;;;23.05;43.43
49813;BME280;35706;52.100;5.056;2023-06-10T03:06:31;101442.13;;;23.08;42.76
49813;BME280;35706;52.100;5.056;2023-06-10T03:07:33;101437.38;;;23.04;43.26
49813;BME280;35706;52.100;5.056;2023-06-10T03:08:34;101442.75;;;23.10;43.34
49813;BME280;35706;52.100;5.056;2023-06-10T03:09:35;101440.25;;;23.15;43.51
49813;BME280;35706;52.100;5.056;2023-06-10T03:10:35;101434.50;;;23.12;43.47
49813;BME280;35706;52.100;5.056;2023-06-10T03:11:35;101438.81;;;23.13;43.30
49813;BME280;35706;52.100;5.056;2023-06-10T03:12:36;101442.75;;;23.10;43.40
49813;BME280;35706;52.100;5.056;2023-06-10T03:13:36;101441.31;;;23.01;43.54
49813;BME280;35706;52.100;5.056;2023-06-10T03:14:38;101442.56;;;23.12;43.54
49813;BME280;35706;52.100;5.056;2023-06-10T03:15:38;101446.03;;;23.12;43.25
49813;BME280;35706;52.100;5.056;2023-06-10T03:16:40;101441.09;;;23.09;43.44
49813;BME280;35706;52.100;5.056;2023-06-10T03:17:42;101447.28;;;23.03;43.57
49813;BME280;35706;52.100;5.056;2023-06-10T03:18:42;101444.41;;;23.18;43.48
49813;BME280;35706;52.100;5.056;2023-06-10T03:19:43;101444.19;;;23.13;43.74
49813;BME280;35706;52.100;5.056;2023-06-10T03:20:43;101444.59;;;23.10;43.79
49813;BME280;35706;52.100;5.056;2023-06-10T03:21:44;101443.97;;;23.01;43.71
49813;BME280;35706;52.100;5.056;2023-06-10T03:22:45;101443.31;;;22.99;44.69
49813;BME280;35706;52.100;5.056;2023-06-10T03:23:45;101434.84;;;22.95;44.28
49813;BME280;35706;52.100;5.056;2023-06-10T03:24:45;101447.63;;;22.93;45.62
49813;BME280;35706;52.100;5.056;2023-06-10T03:25:46;101439.44;;;23.08;45.79
49813;BME280;35706;52.100;5.056;2023-06-10T03:26:47;101441.50;;;23.13;45.31
49813;BME280;35706;52.100;5.056;2023-06-10T03:27:47;101445.03;;;23.27;44.98
49813;BME280;35706;52.100;5.056;2023-06-10T03:28:47;101453.69;;;23.35;44.78
49813;BME280;35706;52.100;5.056;2023-06-10T03:29:48;101445.47;;;23.37;45.43
49813;BME280;35706;52.100;5.056;2023-06-10T03:30:48;101443.78;;;23.43;44.67
49813;BME280;35706;52.100;5.056;2023-06-10T03:31:49;101438.84;;;23.40;44.69
49813;BME280;35706;52.100;5.056;2023-06-10T03:32:49;101444.22;;;23.40;45.35
49813;BME280;35706;52.100;5.056;2023-06-10T03:33:49;101445.03;;;23.47;45.71
49813;BME280;35706;52.100;5.056;2023-06-10T03:34:50;101447.31;;;23.43;44.99
49813;BME280;35706;52.100;5.056;2023-06-10T03:35:51;101449.16;;;23.43;45.13
49813;BME280;35706;52.100;5.056;2023-06-10T03:36:51;101452.25;;;23.46;44.91
49813;BME280;35706;52.100;5.056;2023-06-10T03:37:52;101451.22;;;23.47;45.39
49813;BME280;35706;52.100;5.056;2023-06-10T03:38:52;101444.00;;;23.34;44.87
49813;BME280;35706;52.100;5.056;2023-06-10T03:39:53;101444.84;;;23.42;44.96
49813;BME280;35706;52.100;5.056;2023-06-10T03:40:54;101445.22;;;23.38;44.72
49813;BME280;35706;52.100;5.056;2023-06-10T03:41:55;101444.22;;;23.40;44.81
49813;BME280;35706;52.100;5.056;2023-06-10T03:42:57;101452.47;;;23.38;44.11
49813;BME280;35706;52.100;5.056;2023-06-10T03:43:57;101450.38;;;23.47;44.21
49813;BME280;35706;52.100;5.056;2023-06-10T03:44:58;101447.91;;;23.38;44.73
49813;BME280;35706;52.100;5.056;2023-06-10T03:45:58;101447.50;;;23.42;44.67
49813;BME280;35706;52.100;5.056;2023-06-10T03:46:58;101454.53;;;23.36;44.61
49813;BME280;35706;52.100;5.056;2023-06-10T03:48:01;101453.91;;;23.34;45.13
49813;BME280;35706;52.100;5.056;2023-06-10T03:49:02;101455.13;;;23.18;44.88
49813;BME280;35706;52.100;5.056;2023-06-10T03:50:04;101454.91;;;23.20;45.35
49813;BME280;35706;52.100;5.056;2023-06-10T03:51:04;101454.31;;;23.31;45.13
49813;BME280;35706;52.100;5.056;2023-06-10T03:52:04;101459.25;;;23.34;44.97
49813;BME280;35706;52.100;5.056;2023-06-10T03:53:05;101454.72;;;23.34;44.73
49813;BME280;35706;52.100;5.056;2023-06-10T03:54:05;101459.06;;;23.49;44.87
49813;BME280;35706;52.100;5.056;2023-06-10T03:55:06;101457.00;;;23.44;45.04
49813;BME280;35706;52.100;5.056;2023-06-10T03:56:06;101458.66;;;23.45;44.38
49813;BME280;35706;52.100;5.056;2023-06-10T03:57:06;101467.09;;;23.42;44.33
49813;BME280;35706;52.100;5.056;2023-06-10T03:58:07;101464.00;;;23.19;44.63
49813;BME280;35706;52.100;5.056;2023-06-10T03:59:07;101461.31;;;23.05;44.96
49813;BME280;35706;52.100;5.056;2023-06-10T04:00:08;101456.50;;;22.94;45.35
49813;BME280;35706;52.100;5.056;2023-06-10T04:01:12;101458.78;;;22.90;45.55
49813;BME280;35706;52.100;5.056;2023-06-10T04:02:13;101467.00;;;22.89;45.41
49813;BME280;35706;52.100;5.056;2023-06-10T04:03:13;101464.72;;;22.86;45.45
49813;BME280;35706;52.100;5.056;2023-06-10T04:04:14;101457.72;;;22.85;45.58
49813;BME280;35706;52.100;5.056;2023-06-10T04:05:17;101457.53;;;22.80;46.11
49813;BME280;35706;52.100;5.056;2023-06-10T04:06:17;101464.31;;;22.75;46.11
49813;BME280;35706;52.100;5.056;2023-06-10T04:07:17;101464.50;;;22.74;45.95
49813;BME280;35706;52.100;5.056;2023-06-10T04:08:20;101463.72;;;22.87;45.67
49813;BME280;35706;52.100;5.056;2023-06-10T04:09:20;101460.41;;;22.78;45.71
49813;BME280;35706;52.100;5.056;2023-06-10T04:10:21;101469.44;;;22.70;46.08
49813;BME280;35706;52.100;5.056;2023-06-10T04:11:21;101464.94;;;22.84;45.82
49813;BME280;35706;52.100;5.056;2023-06-10T04:12:22;101463.69;;;22.73;46.16
49813;BME280;35706;52.100;5.056;2023-06-10T04:13:22;101467.16;;;22.61;46.26
49813;BME280;35706;52.100;5.056;2023-06-10T04:14:22;101464.03;;;22.57;46.87
49813;BME280;35706;52.100;5.056;2023-06-10T04:15:23;101460.09;;;22.53;46.90
49813;BME280;35706;52.100;5.056;2023-06-10T04:16:23;101465.09;;;22.63;46.63
49813;BME280;35706;52.100;5.056;2023-06-10T04:17:23;101462.41;;;22.63;46.33
49813;BME280;35706;52.100;5.056;2023-06-10T04:18:24;101462.41;;;22.63;46.51
49813;BME280;35706;52.100;5.056;2023-06-10T04:19:24;101464.03;;;22.57;46.70
49813;BME280;35706;52.100;5.056;2023-06-10T04:20:24;101466.91;;;22.55;47.03
49813;BME280;35706;52.100;5.056;2023-06-10T04:21:25;101467.72;;;22.56;46.68
49813;BME280;35706;52.100;5.056;2023-06-10T04:22:26;101467.09;;;22.54;46.92
49813;BME280;35706;52.100;5.056;2023-06-10T04:23:27;101474.13;;;22.55;46.93
49813;BME280;35706;52.100;5.056;2023-06-10T04:24:27;101463.16;;;22.50;46.91
49813;BME280;35706;52.100;5.056;2023-06-10T04:25:27;101472.25;;;22.55;46.79
49813;BME280;35706;52.100;5.056;2023-06-10T04:26:28;101476.38;;;22.51;46.74
49813;BME280;35706;52.100;5.056;2023-06-10T04:27:29;101473.88;;;22.50;47.01
49813;BME280;35706;52.100;5.056;2023-06-10T04:28:30;101479.63;;;22.40;47.63
49813;BME280;35706;52.100;5.056;2023-06-10T04:29:30;101471.19;;;22.50;47.17
49813;BME280;35706;52.100;5.056;2023-06-10T04:30:31;101469.38;;;22.57;46.94
49813;BME280;35706;52.100;5.056;2023-06-10T04:31:31;101478.44;;;22.56;46.92
49813;BME280;35706;52.100;5.056;2023-06-10T04:32:32;101481.50;;;22.46;47.35
49813;BME280;35706;52.100;5.056;2023-06-10T04:33:32;101479.84;;;22.52;46.85
49813;BME280;35706;52.100;5.056;2023-06-10T04:34:33;101479.66;;;22.47;47.52
49813;BME280;35706;52.100;5.056;2023-06-10T04:35:34;101475.75;;;22.56;47.13
49813;BME280;35706;52.100;5.056;2023-06-10T04:36:34;101482.09;;;22.42;47.18
49813;BME280;35706;52.100;5.056;2023-06-10T04:37:34;101478.00;;;22.46;47.20
49813;BME280;35706;52.100;5.056;2023-06-10T04:38:34;101479.22;;;22.43;47.59
49813;BME280;35706;52.100;5.056;2023-06-10T04:39:35;101483.59;;;22.51;47.26
49813;BME280;35706;52.100;5.056;2023-06-10T04:40:35;101485.84;;;22.54;47.41
49813;BME280;35706;52.100;5.056;2023-06-10T04:41:36;101480.50;;;22.54;47.17
49813;BME280;35706;52.100;5.056;2023-06-10T04:42:37;101485.81;;;22.47;47.40
49813;BME280;35706;52.100;5.056;2023-06-10T04:43:37;101480.91;;;22.51;47.54
49813;BME280;35706;52.100;5.056;2023-06-10T04:44:38;101483.16;;;22.54;47.68
49813;BME280;35706;52.100;5.056;2023-06-10T04:45:39;101478.84;;;22.53;47.40
49813;BME280;35706;52.100;5.056;2023-06-10T04:46:39;101489.78;;;22.58;47.40
49813;BME280;35706;52.100;5.056;2023-06-10T04:47:40;101488.16;;;22.57;47.61
49813;BME280;35706;52.100;5.056;2023-06-10T04:48:40;101486.13;;;22.66;47.08
49813;BME280;35706;52.100;5.056;2023-06-10T04:49:42;101492.28;;;22.60;47.29
49813;BME280;35706;52.100;5.056;2023-06-10T04:50:42;101481.75;;;22.58;47.41
49813;BME280;35706;52.100;5.056;2023-06-10T04:51:43;101492.91;;;22.68;47.38
49813;BME280;35706;52.100;5.056;2023-06-10T04:52:43;101487.97;;;22.65;47.31
49813;BME280;35706;52.100;5.056;2023-06-10T04:53:44;101494.94;;;22.53;47.71
49813;BME280;35706;52.100;5.056;2023-06-10T04:54:45;101489.78;;;22.58;47.67
49813;BME280;35706;52.100;5.056;2023-06-10T04:55:45;101493.31;;;22.59;47.59
49813;BME280;35706;52.100;5.056;2023-06-10T04:56:45;101493.72;;;22.62;47.37
49813;BME280;35706;52.100;5.056;2023-06-10T04:57:46;101492.09;;;22.61;47.31
49813;BME280;35706;52.100;5.056;2023-06-10T04:58:47;101491.25;;;22.61;47.36
49813;BME280;35706;52.100;5.056;2023-06-10T04:59:47;101492.72;;;22.63;47.51
49813;BME280;35706;52.100;5.056;2023-06-10T05:00:48;101488.97;;;22.58;47.62
49813;BME280;35706;52.100;5.056;2023-06-10T05:01:48;101496.63;;;22.61;47.40
49813;BME280;35706;52.100;5.056;2023-06-10T05:02:48;101485.53;;;22.84;46.94
49813;BME280;35706;52.100;5.056;2023-06-10T05:03:49;101492.97;;;22.82;47.18
49813;BME280;35706;52.100;5.056;2023-06-10T05:04:50;101497.91;;;22.71;47.31
49813;BME280;35706;52.100;5.056;2023-06-10T05:05:50;101483.59;;;22.51;48.07
49813;BME280;35706;52.100;5.056;2023-06-10T05:06:50;101490.38;;;22.53;47.68
49813;BME280;35706;52.100;5.056;2023-06-10T05:07:51;101491.84;;;22.56;47.61
49813;BME280;35706;52.100;5.056;2023-06-10T05:08:51;101494.59;;;22.69;47.69
49813;BME280;35706;52.100;5.056;2023-06-10T05:09:51;101496.22;;;22.70;47.63
49813;BME280;35706;52.100;5.056;2023-06-10T05:10:51;101496.03;;;22.72;47.31
49813;BME280;35706;52.100;5.056;2023-06-10T05:11:52;101494.56;;;22.63;48.09
49813;BME280;35706;52.100;5.056;2023-06-10T05:12:53;101490.84;;;22.64;47.96
49813;BME280;35706;52.100;5.056;2023-06-10T05:13:53;101494.13;;;22.59;47.93
49813;BME280;35706;52.100;5.056;2023-06-10T05:14:54;101490.41;;;22.60;47.93
49813;BME280;35706;52.100;5.056;2023-06-10T05:15:54;101494.34;;;22.64;47.77
49813;BME280;35706;52.100;5.056;2023-06-10T05:16:54;101488.38;;;22.69;47.82
49813;BME280;35706;52.100;5.056;2023-06-10T05:17:56;101492.13;;;22.74;47.88
49813;BME280;35706;52.100;5.056;2023-06-10T05:18:58;101494.78;;;22.74;47.85
49813;BME280;35706;52.100;5.056;2023-06-10T05:19:58;101490.88;;;22.77;47.66
49813;BME280;35706;52.100;5.056;2023-06-10T05:20:59;101487.59;;;22.82;47.63
49813;BME280;35706;52.100;5.056;2023-06-10T05:21:59;101488.22;;;22.84;47.60
49813;BME280;35706;52.100;5.056;2023-06-10T05:22:59;101494.16;;;22.72;47.55